KTXK/TXK METAR and TAF weather

Enter ICAO airport designator
Station Type Date Time Source
KTXK METAR 2024/06/14 20:53 UTC NOAA

KTXK 142053Z 34004KT 10SM CLR 36/18 A2995 RMK AO2 SLP136 T03610183 58011


Station Type Date Time Source
KTXK Decoded METAR 2024/06/14 20:53 UTC NOAA

TEXARKANA RGNL WEBB FIELD, AR, United States (KTXK) 33-27N 093-59W 111M
Jun 14, 2024 - 04:53 PM EDT / 2024.06.14 2053 UTC
Wind: from the NNW (340 degrees) at 5 MPH (4 KT):0
Visibility: 10 mile(s):0
Sky conditions: clear
Temperature: 97.0 F (36.1 C)
Heat index: 99.9 F (37.7 C):1
Dew Point: 64.9 F (18.3 C)
Relative Humidity: 35%
Pressure (altimeter): 29.95 in. Hg (1014 hPa)
Pressure tendency: 0.03 inches (1.1 hPa) lower than three hours ago
ob: KTXK 142053Z 34004KT 10SM CLR 36/18 A2995 RMK AO2 SLP136 T03610183 58011
cycle: 21

Station Type Date Time Source
KTXK TAF 2024/06/14 18:45 UTC NOAA